createdAt,value
2017-08-24T00:01:19.286Z,21.92
2017-08-24T00:03:46.679Z,22.03
2017-08-24T00:06:14.079Z,22.03
2017-08-24T00:08:41.627Z,21.95
2017-08-24T00:11:09.022Z,22.05
2017-08-24T00:13:36.416Z,22.12
2017-08-24T00:16:03.823Z,22.11
2017-08-24T00:18:31.219Z,22.11
2017-08-24T00:20:58.615Z,22.09
2017-08-24T00:23:26.169Z,22.16
2017-08-24T00:25:53.558Z,22.20
2017-08-24T00:28:20.958Z,22.26
2017-08-24T00:30:48.822Z,22.33
2017-08-24T00:33:16.238Z,22.35
2017-08-24T00:35:43.634Z,22.36
2017-08-24T00:38:11.077Z,22.29
2017-08-24T00:40:38.470Z,22.34
2017-08-24T00:43:05.868Z,22.45
2017-08-24T00:45:33.278Z,22.43
2017-08-24T00:48:00.678Z,22.43
2017-08-24T00:50:28.073Z,22.41
2017-08-24T00:52:56.015Z,22.46
2017-08-24T00:55:23.415Z,22.47
2017-08-24T00:57:50.810Z,22.50
2017-08-24T01:00:18.386Z,22.52
2017-08-24T01:02:45.791Z,22.57
2017-08-24T01:05:13.186Z,22.63
2017-08-24T01:07:40.702Z,22.68
2017-08-24T01:10:08.093Z,22.66
2017-08-24T01:12:35.495Z,22.68
2017-08-24T01:15:03.003Z,22.66
2017-08-24T01:17:30.405Z,22.70
2017-08-24T01:19:57.798Z,22.69
2017-08-24T01:22:25.240Z,22.67
2017-08-24T01:24:52.639Z,22.66
2017-08-24T01:27:20.033Z,22.67
2017-08-24T01:29:47.442Z,22.66
2017-08-24T01:32:14.831Z,22.63
2017-08-24T01:34:42.230Z,22.65
2017-08-24T01:37:09.679Z,22.64
2017-08-24T01:39:37.075Z,22.51
2017-08-24T01:42:04.471Z,22.15
2017-08-24T01:44:31.916Z,21.83
2017-08-24T01:46:59.305Z,21.90
2017-08-24T01:49:26.703Z,21.89
2017-08-24T01:51:54.139Z,21.81
2017-08-24T01:54:21.541Z,21.72
2017-08-24T01:56:48.947Z,21.74
2017-08-24T01:59:16.509Z,21.81
2017-08-24T02:01:43.904Z,21.77
2017-08-24T02:04:11.323Z,21.57
2017-08-24T02:06:38.741Z,21.48
2017-08-24T02:09:06.143Z,21.35
2017-08-24T02:11:33.539Z,21.28
2017-08-24T02:14:01.247Z,21.23
2017-08-24T02:16:28.651Z,21.10
2017-08-24T02:18:56.059Z,21.02
2017-08-24T02:21:23.463Z,20.86
2017-08-24T02:23:50.862Z,20.78
2017-08-24T02:26:18.258Z,20.77
2017-08-24T02:28:45.807Z,20.84
2017-08-24T02:31:13.203Z,20.84
2017-08-24T02:33:40.598Z,20.74
2017-08-24T02:36:08.007Z,20.77
2017-08-24T02:38:35.402Z,20.65
2017-08-24T02:41:02.790Z,20.57
2017-08-24T02:43:30.574Z,20.58
2017-08-24T02:45:57.974Z,20.68
2017-08-24T02:48:25.366Z,20.59
2017-08-24T02:50:52.871Z,20.61
2017-08-24T02:53:20.266Z,20.50
2017-08-24T02:55:47.663Z,20.19
2017-08-24T02:58:15.242Z,20.18
2017-08-24T03:00:42.643Z,20.04
2017-08-24T03:03:10.041Z,20.00
2017-08-24T03:05:37.542Z,19.96
2017-08-24T03:08:04.939Z,19.94
2017-08-24T03:10:32.326Z,19.72
2017-08-24T03:12:59.746Z,19.61
2017-08-24T03:15:27.139Z,19.51
2017-08-24T03:17:54.534Z,19.56
2017-08-24T03:20:21.970Z,19.59
2017-08-24T03:22:49.366Z,19.57
2017-08-24T03:25:16.766Z,19.62
2017-08-24T03:27:44.207Z,19.65
2017-08-24T03:30:11.603Z,19.71
2017-08-24T03:32:38.998Z,19.76
2017-08-24T03:35:06.438Z,19.64
2017-08-24T03:37:33.830Z,19.73
2017-08-24T03:40:01.222Z,19.48
2017-08-24T03:42:28.630Z,19.60
2017-08-24T03:44:56.027Z,19.58
2017-08-24T03:47:23.422Z,19.54
2017-08-24T03:49:51.192Z,19.67
2017-08-24T03:52:18.581Z,19.42
2017-08-24T03:54:45.983Z,19.35
2017-08-24T03:57:13.542Z,19.32
2017-08-24T03:59:40.934Z,19.30
2017-08-24T04:02:08.330Z,19.21
2017-08-24T04:04:35.883Z,19.11
2017-08-24T04:07:03.287Z,19.16
2017-08-24T04:09:30.683Z,19.20
2017-08-24T04:11:58.234Z,19.34
2017-08-24T04:14:25.630Z,19.43
2017-08-24T04:16:53.030Z,19.40
2017-08-24T04:19:20.582Z,19.35
2017-08-24T04:21:47.982Z,19.33
2017-08-24T04:24:15.386Z,19.36
2017-08-24T04:26:42.806Z,19.40
2017-08-24T04:29:10.198Z,19.45
2017-08-24T04:31:37.595Z,19.25
2017-08-24T04:34:05.002Z,19.11
2017-08-24T04:36:32.398Z,19.00
2017-08-24T04:38:59.790Z,19.02
2017-08-24T04:41:27.338Z,18.88
2017-08-24T04:43:54.734Z,19.05
2017-08-24T04:46:22.134Z,19.09
2017-08-24T04:48:49.642Z,18.97
2017-08-24T04:51:17.051Z,19.00
2017-08-24T04:53:44.438Z,19.13
2017-08-24T04:56:11.989Z,19.21
2017-08-24T04:58:39.387Z,19.17
2017-08-24T05:01:06.794Z,19.23
2017-08-24T05:03:34.194Z,19.30
2017-08-24T05:06:01.592Z,19.23
2017-08-24T05:08:28.998Z,19.21
2017-08-24T05:10:56.590Z,19.16
2017-08-24T05:13:23.986Z,19.22
2017-08-24T05:15:51.385Z,19.04
2017-08-24T05:18:18.802Z,19.02
2017-08-24T05:20:46.198Z,18.92
2017-08-24T05:23:13.595Z,18.96
2017-08-24T05:25:41.147Z,18.87
2017-08-24T05:28:08.542Z,18.80
2017-08-24T05:30:35.938Z,18.66
2017-08-24T05:33:03.502Z,18.57
2017-08-24T05:35:30.888Z,18.45
2017-08-24T05:37:58.290Z,18.61
2017-08-24T05:40:25.728Z,18.74
2017-08-24T05:42:53.130Z,18.82
2017-08-24T05:45:20.522Z,18.62
2017-08-24T05:47:48.030Z,18.81
2017-08-24T05:50:15.442Z,18.85
2017-08-24T05:52:42.838Z,18.78
2017-08-24T05:55:10.344Z,18.86
2017-08-24T05:57:37.742Z,18.86
2017-08-24T06:00:05.139Z,18.80
2017-08-24T06:02:32.683Z,18.87
2017-08-24T06:05:00.079Z,18.86
2017-08-24T06:07:27.479Z,18.82
2017-08-24T06:09:54.978Z,18.85
2017-08-24T06:12:22.377Z,18.79
2017-08-24T06:14:49.766Z,18.58
2017-08-24T06:17:17.207Z,18.71
2017-08-24T06:19:44.855Z,18.75
2017-08-24T06:22:12.253Z,18.62
2017-08-24T06:24:39.804Z,18.63
2017-08-24T06:27:07.202Z,18.65
2017-08-24T06:29:34.599Z,18.73
2017-08-24T06:32:02.015Z,18.77
2017-08-24T06:34:29.410Z,18.86
2017-08-24T06:36:56.808Z,18.84
2017-08-24T06:39:24.225Z,19.00
2017-08-24T06:41:51.623Z,19.03
2017-08-24T06:44:19.018Z,19.16
2017-08-24T06:46:46.607Z,19.06
2017-08-24T06:49:14.014Z,19.15
2017-08-24T06:51:41.411Z,19.21
2017-08-24T06:54:08.827Z,19.26
2017-08-24T06:56:36.223Z,19.21
2017-08-24T06:59:03.621Z,19.30
2017-08-24T07:01:31.030Z,19.48
2017-08-24T07:03:58.434Z,19.69
2017-08-24T07:06:25.826Z,19.83
2017-08-24T07:08:53.256Z,19.81
2017-08-24T07:11:20.656Z,19.84
2017-08-24T07:13:48.050Z,19.95
2017-08-24T07:16:15.610Z,19.92
2017-08-24T07:18:43.006Z,20.10
2017-08-24T07:21:10.400Z,19.95
2017-08-24T07:23:37.822Z,20.01
2017-08-24T07:26:05.223Z,20.01
2017-08-24T07:28:32.617Z,20.06
2017-08-24T07:31:00.130Z,19.83
2017-08-24T07:33:27.526Z,19.81
2017-08-24T07:35:54.922Z,19.82
2017-08-24T07:38:22.430Z,19.91
2017-08-24T07:40:49.834Z,19.80
2017-08-24T07:43:17.235Z,20.00
2017-08-24T07:45:44.806Z,20.20
2017-08-24T07:48:12.185Z,20.22
2017-08-24T07:50:39.574Z,20.38
2017-08-24T07:53:07.127Z,20.42
2017-08-24T07:55:34.519Z,20.45
2017-08-24T07:58:01.922Z,20.44
2017-08-24T08:00:29.345Z,20.28
2017-08-24T08:02:56.742Z,20.26
2017-08-24T08:05:24.138Z,20.51
2017-08-24T08:07:51.559Z,20.72
2017-08-24T08:10:18.954Z,20.76
2017-08-24T08:12:46.354Z,20.62
2017-08-24T08:15:13.795Z,20.58
2017-08-24T08:17:41.190Z,20.55
2017-08-24T08:20:08.586Z,20.83
2017-08-24T08:22:36.139Z,20.96
2017-08-24T08:25:03.534Z,21.05
2017-08-24T08:27:30.930Z,20.82
2017-08-24T08:29:58.357Z,20.80
2017-08-24T08:32:25.750Z,20.73
2017-08-24T08:34:53.146Z,21.01
2017-08-24T08:37:20.642Z,21.14
2017-08-24T08:39:48.041Z,21.47
2017-08-24T08:42:15.440Z,21.61
2017-08-24T08:44:42.964Z,21.79
2017-08-24T08:47:10.339Z,21.78
2017-08-24T08:49:37.730Z,21.64
2017-08-24T08:52:05.183Z,21.57
2017-08-24T08:54:32.579Z,21.78
2017-08-24T08:56:59.975Z,21.84
2017-08-24T08:59:27.385Z,21.82
2017-08-24T09:01:54.783Z,21.78
2017-08-24T09:04:22.195Z,21.92
2017-08-24T09:06:49.705Z,21.93
2017-08-24T09:09:17.103Z,21.86
2017-08-24T09:11:44.503Z,21.95
2017-08-24T09:14:12.046Z,21.78
2017-08-24T09:16:39.445Z,21.89
2017-08-24T09:19:06.842Z,21.74
2017-08-24T09:21:34.282Z,21.88
2017-08-24T09:24:01.688Z,21.81
2017-08-24T09:26:29.086Z,21.90
2017-08-24T09:28:56.954Z,21.97
2017-08-24T09:31:24.354Z,22.15
2017-08-24T09:33:51.743Z,22.27
2017-08-24T09:36:19.152Z,22.00
2017-08-24T09:38:46.546Z,21.88
2017-08-24T09:41:13.939Z,21.81
2017-08-24T09:43:41.491Z,21.74
2017-08-24T09:46:08.887Z,21.74
2017-08-24T09:48:36.286Z,21.86
2017-08-24T09:51:03.830Z,21.84
2017-08-24T09:53:31.235Z,21.95
2017-08-24T09:55:58.626Z,21.84
2017-08-24T09:58:26.410Z,22.01
2017-08-24T10:00:53.815Z,22.04
2017-08-24T10:03:21.206Z,21.76
2017-08-24T10:05:48.746Z,22.00
2017-08-24T10:08:16.142Z,22.30
2017-08-24T10:10:43.542Z,22.47
2017-08-24T10:13:11.047Z,22.54
2017-08-24T10:15:38.687Z,22.71
2017-08-24T10:18:06.082Z,23.04
2017-08-24T10:20:33.503Z,23.33
2017-08-24T10:23:00.898Z,23.14
2017-08-24T10:25:28.306Z,23.35
2017-08-24T10:27:55.735Z,23.44
2017-08-24T10:30:23.149Z,22.99
2017-08-24T10:32:50.527Z,23.21
2017-08-24T10:35:17.934Z,23.14
2017-08-24T10:37:45.331Z,22.63
2017-08-24T10:40:12.731Z,23.01
2017-08-24T10:42:40.278Z,23.70
2017-08-24T10:45:07.701Z,23.90
2017-08-24T10:47:35.094Z,23.89
2017-08-24T10:50:02.518Z,24.45
2017-08-24T10:52:29.939Z,24.42
2017-08-24T10:54:57.327Z,24.90
2017-08-24T10:57:24.740Z,24.50
2017-08-24T10:59:52.132Z,25.06
2017-08-24T11:02:19.526Z,25.33
2017-08-24T11:04:46.947Z,24.98
2017-08-24T11:07:14.338Z,24.18
2017-08-24T11:09:41.738Z,24.12
2017-08-24T11:12:09.294Z,24.52
2017-08-24T11:14:36.690Z,24.38
2017-08-24T11:17:04.086Z,24.09
2017-08-24T11:19:31.717Z,24.15
2017-08-24T11:21:59.114Z,24.20
2017-08-24T11:24:26.510Z,24.32
2017-08-24T11:26:54.296Z,24.24
2017-08-24T11:29:21.690Z,24.08
2017-08-24T11:31:49.090Z,24.06
2017-08-24T11:34:16.646Z,24.78
2017-08-24T11:36:44.043Z,25.22
2017-08-24T11:39:11.438Z,25.46
2017-08-24T11:41:39.253Z,26.02
2017-08-24T11:44:06.684Z,25.54
2017-08-24T11:46:34.057Z,26.26
2017-08-24T11:49:01.827Z,26.42
2017-08-24T11:51:29.223Z,26.55
2017-08-24T11:53:56.622Z,26.92
2017-08-24T11:56:24.182Z,27.01
2017-08-24T11:58:51.582Z,26.80
2017-08-24T12:01:18.979Z,26.28
2017-08-24T12:03:46.491Z,26.03
2017-08-24T12:06:13.890Z,26.26
2017-08-24T12:08:41.291Z,26.48
2017-08-24T12:11:08.848Z,26.22
2017-08-24T12:13:36.266Z,26.28
2017-08-24T12:16:03.659Z,26.05
2017-08-24T12:18:31.100Z,26.19
2017-08-24T12:20:58.503Z,26.46
2017-08-24T12:23:25.900Z,26.68
2017-08-24T12:25:53.312Z,26.50
2017-08-24T12:28:20.703Z,26.51
2017-08-24T12:30:48.101Z,26.68
2017-08-24T12:33:15.657Z,26.90
2017-08-24T12:35:43.046Z,27.27
2017-08-24T12:38:10.438Z,27.35
2017-08-24T12:40:37.852Z,27.57
2017-08-24T12:43:05.246Z,27.88
2017-08-24T12:45:32.644Z,27.49
2017-08-24T12:48:00.205Z,27.55
2017-08-24T12:50:27.589Z,27.19
2017-08-24T12:52:55.008Z,26.88
2017-08-24T12:55:22.766Z,26.73
2017-08-24T12:57:50.158Z,26.76
2017-08-24T13:00:17.555Z,26.82
2017-08-24T13:02:45.102Z,27.02
2017-08-24T13:05:12.503Z,27.34
2017-08-24T13:07:39.906Z,27.33
2017-08-24T13:10:07.314Z,27.27
2017-08-24T13:12:34.709Z,26.85
2017-08-24T13:15:02.105Z,27.10
2017-08-24T13:17:29.878Z,27.04
2017-08-24T13:19:57.282Z,27.34
2017-08-24T13:22:24.687Z,26.87
2017-08-24T13:24:52.297Z,26.97
2017-08-24T13:27:19.689Z,27.24
2017-08-24T13:29:47.083Z,26.48
2017-08-24T13:32:14.635Z,26.45
2017-08-24T13:34:42.030Z,26.46
2017-08-24T13:37:09.426Z,26.31
2017-08-24T13:39:36.871Z,26.31
2017-08-24T13:42:04.268Z,26.33
2017-08-24T13:44:31.663Z,26.56
2017-08-24T13:46:59.575Z,26.52
2017-08-24T13:49:26.988Z,26.68
2017-08-24T13:51:54.378Z,26.65
2017-08-24T13:54:21.943Z,26.54
2017-08-24T13:56:49.340Z,26.83
2017-08-24T13:59:16.735Z,26.85
2017-08-24T14:01:44.141Z,26.16
2017-08-24T14:04:11.543Z,26.34
2017-08-24T14:06:38.946Z,26.31
2017-08-24T14:09:06.361Z,26.46
2017-08-24T14:11:33.755Z,26.36
2017-08-24T14:14:01.152Z,26.11
2017-08-24T14:16:28.694Z,25.78
2017-08-24T14:18:56.098Z,25.73
2017-08-24T14:21:23.504Z,25.79
2017-08-24T14:23:51.050Z,25.94
2017-08-24T14:26:18.447Z,26.18
2017-08-24T14:28:45.847Z,26.08
2017-08-24T14:31:13.350Z,25.93
2017-08-24T14:33:40.750Z,25.86
2017-08-24T14:36:08.154Z,25.85
2017-08-24T14:38:35.698Z,25.56
2017-08-24T14:41:03.950Z,25.53
2017-08-24T14:43:31.347Z,25.85
2017-08-24T14:45:58.785Z,25.91
2017-08-24T14:48:26.190Z,25.69
2017-08-24T14:50:53.590Z,25.75
2017-08-24T14:53:21.093Z,25.67
2017-08-24T14:55:48.501Z,25.36
2017-08-24T14:58:15.891Z,25.25
2017-08-24T15:00:43.307Z,25.53
2017-08-24T15:03:10.706Z,25.58
2017-08-24T15:05:38.098Z,25.18
2017-08-24T15:08:05.747Z,25.08
2017-08-24T15:10:33.147Z,25.19
2017-08-24T15:13:00.538Z,25.25
2017-08-24T15:15:28.091Z,25.56
2017-08-24T15:17:55.487Z,25.69
2017-08-24T15:20:22.879Z,25.67
2017-08-24T15:22:50.442Z,25.61
2017-08-24T15:25:17.837Z,25.56
2017-08-24T15:27:45.230Z,25.46
2017-08-24T15:30:12.659Z,25.49
2017-08-24T15:32:40.050Z,25.40
2017-08-24T15:35:07.443Z,25.51
2017-08-24T15:37:34.998Z,25.51
2017-08-24T15:40:02.394Z,25.43
2017-08-24T15:42:29.799Z,25.23
2017-08-24T15:44:57.734Z,25.11
2017-08-24T15:47:25.127Z,25.10
2017-08-24T15:49:52.522Z,25.13
2017-08-24T15:52:20.037Z,25.17
2017-08-24T15:54:47.426Z,25.26
2017-08-24T15:57:14.823Z,25.36
2017-08-24T15:59:42.230Z,25.39
2017-08-24T16:02:09.626Z,25.42
2017-08-24T16:04:37.031Z,25.60
2017-08-24T16:07:04.645Z,25.72
2017-08-24T16:09:32.043Z,25.81
2017-08-24T16:11:59.474Z,25.65
2017-08-24T16:14:27.022Z,25.56
2017-08-24T16:16:54.415Z,25.25
2017-08-24T16:19:21.818Z,25.17
2017-08-24T16:21:49.378Z,25.05
2017-08-24T16:24:16.774Z,24.73
2017-08-24T16:26:44.176Z,24.87
2017-08-24T16:29:11.726Z,24.85
2017-08-24T16:31:39.122Z,24.87
2017-08-24T16:34:06.540Z,24.89
2017-08-24T16:36:33.934Z,24.84
2017-08-24T16:39:01.326Z,24.73
2017-08-24T16:41:28.765Z,24.82
2017-08-24T16:43:56.162Z,24.89
2017-08-24T16:46:23.564Z,24.75
2017-08-24T16:48:50.963Z,24.85
2017-08-24T16:51:18.359Z,24.70
2017-08-24T16:53:45.906Z,24.73
2017-08-24T16:56:13.299Z,24.61
2017-08-24T16:58:40.698Z,24.37
2017-08-24T17:01:08.103Z,24.47
2017-08-24T17:03:35.500Z,24.42
2017-08-24T17:06:02.915Z,24.41
2017-08-24T17:08:30.310Z,24.19
2017-08-24T17:10:57.705Z,24.02
2017-08-24T17:13:25.106Z,24.08
2017-08-24T17:15:52.507Z,24.23
2017-08-24T17:18:20.059Z,24.07
2017-08-24T17:20:47.463Z,24.19
2017-08-24T17:23:14.858Z,24.11
2017-08-24T17:25:42.374Z,24.03
2017-08-24T17:28:09.762Z,24.01
2017-08-24T17:30:37.154Z,23.97
2017-08-24T17:33:04.663Z,23.85
2017-08-24T17:35:32.059Z,23.73
2017-08-24T17:37:59.450Z,23.58
2017-08-24T17:40:26.878Z,23.53
2017-08-24T17:42:54.271Z,23.47
2017-08-24T17:45:21.667Z,23.37
2017-08-24T17:47:49.207Z,23.42
2017-08-24T17:50:16.603Z,23.40
2017-08-24T17:52:43.998Z,23.35
2017-08-24T17:55:11.402Z,23.35
2017-08-24T17:57:38.802Z,23.36
2017-08-24T18:00:06.198Z,23.32
2017-08-24T18:02:33.744Z,23.28
2017-08-24T18:05:01.140Z,23.23
2017-08-24T18:07:28.534Z,23.19
2017-08-24T18:09:56.085Z,23.13
2017-08-24T18:12:23.482Z,23.08
2017-08-24T18:14:50.886Z,23.05
2017-08-24T18:17:18.435Z,22.98
2017-08-24T18:19:45.830Z,22.89
2017-08-24T18:22:13.228Z,22.83
2017-08-24T18:24:40.658Z,22.81
2017-08-24T18:27:08.063Z,22.72
2017-08-24T18:29:35.454Z,22.67
2017-08-24T18:32:03.010Z,22.63
2017-08-24T18:34:30.412Z,22.58
2017-08-24T18:36:57.801Z,22.49
2017-08-24T18:39:25.355Z,22.45
2017-08-24T18:41:52.748Z,22.38
2017-08-24T18:44:20.138Z,22.32
2017-08-24T18:46:47.709Z,22.26
2017-08-24T18:49:15.088Z,22.20
2017-08-24T18:51:42.484Z,22.09
2017-08-24T18:54:09.898Z,22.02
2017-08-24T18:56:37.295Z,21.88
2017-08-24T18:59:04.750Z,21.80
2017-08-24T19:01:32.498Z,21.73
2017-08-24T19:03:59.886Z,21.65
2017-08-24T19:06:27.279Z,21.57
2017-08-24T19:08:54.774Z,21.50
2017-08-24T19:11:22.175Z,21.39
2017-08-24T19:13:49.561Z,21.31
2017-08-24T19:16:17.118Z,21.23
2017-08-24T19:18:44.506Z,21.19
2017-08-24T19:21:11.902Z,21.11
2017-08-24T19:23:39.458Z,21.01
2017-08-24T19:26:06.852Z,20.91
2017-08-24T19:28:34.249Z,20.82
2017-08-24T19:31:01.699Z,20.77
2017-08-24T19:33:29.094Z,20.67
2017-08-24T19:35:56.492Z,20.58
2017-08-24T19:38:23.987Z,20.49
2017-08-24T19:40:51.382Z,20.43
2017-08-24T19:43:18.778Z,20.35
2017-08-24T19:45:46.220Z,20.24
2017-08-24T19:48:13.611Z,20.19
2017-08-24T19:50:41.026Z,20.13
2017-08-24T19:53:08.778Z,20.05
2017-08-24T19:55:36.179Z,19.98
2017-08-24T19:58:03.579Z,20.08
2017-08-24T20:00:30.986Z,20.09
2017-08-24T20:02:58.375Z,20.04
2017-08-24T20:05:25.779Z,20.00
2017-08-24T20:07:53.194Z,19.94
2017-08-24T20:10:20.586Z,19.93
2017-08-24T20:12:47.978Z,19.86
2017-08-24T20:15:15.387Z,19.80
2017-08-24T20:17:42.783Z,19.75
2017-08-24T20:20:10.183Z,19.65
2017-08-24T20:22:37.646Z,19.56
2017-08-24T20:25:05.038Z,19.50
2017-08-24T20:27:32.460Z,19.44
2017-08-24T20:30:00.166Z,19.36
2017-08-24T20:32:27.586Z,19.29
2017-08-24T20:34:54.991Z,19.24
2017-08-24T20:37:22.538Z,19.08
2017-08-24T20:39:49.943Z,19.08
2017-08-24T20:42:17.346Z,19.20
2017-08-24T20:44:44.758Z,19.20
2017-08-24T20:47:12.151Z,19.19
2017-08-24T20:49:39.553Z,19.13
2017-08-24T20:52:07.099Z,19.10
2017-08-24T20:54:34.491Z,19.06
2017-08-24T20:57:01.883Z,19.02
2017-08-24T20:59:29.430Z,18.98
2017-08-24T21:01:57.058Z,18.93
2017-08-24T21:04:24.443Z,18.87
2017-08-24T21:06:51.951Z,18.84
2017-08-24T21:09:19.349Z,18.81
2017-08-24T21:11:46.744Z,18.76
2017-08-24T21:14:14.254Z,18.78
2017-08-24T21:16:41.646Z,18.77
2017-08-24T21:19:09.042Z,18.72
2017-08-24T21:21:36.591Z,18.56
2017-08-24T21:24:03.992Z,18.62
2017-08-24T21:26:31.383Z,18.64
2017-08-24T21:28:58.837Z,18.67
2017-08-24T21:31:26.238Z,18.73
2017-08-24T21:33:53.639Z,18.75
2017-08-24T21:36:21.143Z,18.75
2017-08-24T21:38:48.547Z,18.79
2017-08-24T21:41:15.951Z,18.88
2017-08-24T21:43:43.498Z,18.91
2017-08-24T21:46:10.890Z,18.75
2017-08-24T21:48:38.295Z,18.67
2017-08-24T21:51:06.231Z,18.68
2017-08-24T21:53:33.631Z,18.68
2017-08-24T21:56:01.019Z,18.71
2017-08-24T21:58:28.574Z,18.70
2017-08-24T22:00:55.971Z,18.78
2017-08-24T22:03:23.363Z,18.75
2017-08-24T22:05:51.178Z,18.65
2017-08-24T22:08:18.576Z,18.52
2017-08-24T22:10:45.970Z,18.47
2017-08-24T22:13:13.523Z,18.43
2017-08-24T22:15:40.925Z,18.36
2017-08-24T22:18:08.319Z,18.35
2017-08-24T22:20:35.874Z,18.29
2017-08-24T22:23:03.269Z,18.30
2017-08-24T22:25:30.665Z,18.30
2017-08-24T22:27:58.231Z,18.28
2017-08-24T22:30:25.610Z,18.27
2017-08-24T22:32:53.002Z,18.24
2017-08-24T22:35:20.413Z,18.29
2017-08-24T22:37:47.802Z,18.34
2017-08-24T22:40:15.206Z,18.19
2017-08-24T22:42:42.978Z,18.15
2017-08-24T22:45:10.371Z,18.22
2017-08-24T22:47:37.782Z,18.16
2017-08-24T22:50:05.207Z,18.24
2017-08-24T22:52:32.611Z,18.25
2017-08-24T22:55:05.674Z,18.22
2017-08-24T22:57:38.611Z,18.19
2017-08-24T23:00:12.043Z,18.12
2017-08-24T23:02:45.114Z,18.05
2017-08-24T23:05:12.563Z,18.01
2017-08-24T23:07:39.970Z,17.99
2017-08-24T23:10:07.374Z,17.92
2017-08-24T23:12:34.879Z,17.84
2017-08-24T23:15:02.275Z,17.82
2017-08-24T23:17:29.673Z,17.80
2017-08-24T23:19:57.078Z,17.78
2017-08-24T23:22:24.472Z,17.77
2017-08-24T23:24:51.882Z,17.68
2017-08-24T23:27:19.391Z,17.72
2017-08-24T23:29:46.786Z,17.74
2017-08-24T23:32:14.183Z,17.74
2017-08-24T23:34:41.740Z,17.70
2017-08-24T23:37:09.137Z,17.70
2017-08-24T23:39:36.534Z,17.65
2017-08-24T23:42:04.298Z,17.63
2017-08-24T23:44:31.702Z,17.61
2017-08-24T23:46:59.094Z,17.54
2017-08-24T23:49:26.915Z,17.57
2017-08-24T23:51:54.314Z,17.57
2017-08-24T23:54:21.710Z,17.54
2017-08-24T23:56:49.218Z,17.50
2017-08-24T23:59:16.610Z,17.47
